Time;durP1;ratioP1;P1;durP2;ratioP2;P2;SDS_P1;SDS_P2;PMS_P1;PMS_P2;Temp;Humidity;BMP_temperature;BMP_pressure;BME280_temperature;BME280_humidity;BME280_pressure;Samples;Min_cycle;Max_cycle;Signal;HPM_P1;HPM_P2
2022/04/14 00:16:12;;;;;;;0.00;0.00;;;;;;;8.56;50.31;99454.88;5069925;28;20094;-83
2022/04/14 00:22:42;;;;;;;0.00;0.00;;;;;;;8.35;51.73;99459.19;5042979;28;20132;-81
2022/04/14 00:25:10;;;;;;;0.00;0.00;;;;;;;8.27;51.99;99463.09;5052950;28;20048;-80
2022/04/14 00:28:25;;;;;;;0.00;0.00;;;;;;;8.29;52.08;99468.19;5029381;28;20009;-80
2022/04/14 00:31:54;;;;;;;0.00;0.00;;;;;;;8.32;52.29;99459.69;5037220;28;20588;-81
2022/04/14 00:34:39;;;;;;;0.00;0.00;;;;;;;8.29;51.95;99455.66;5003530;28;20029;-80
2022/04/14 00:37:05;;;;;;;0.00;0.00;;;;;;;8.37;52.24;99467.72;5013452;28;20049;-79
2022/04/14 00:39:30;;;;;;;0.00;0.00;;;;;;;8.36;52.41;99458.13;5052839;28;20059;-79
2022/04/14 00:42:07;;;;;;;0.00;0.00;;;;;;;8.39;52.32;99454.97;5071255;28;20025;-81
2022/04/14 00:44:33;;;;;;;0.00;0.00;;;;;;;8.44;52.01;99463.00;5053495;28;20488;-80
2022/04/14 00:46:58;;;;;;;0.03;0.03;;;;;;;8.45;52.25;99459.28;5064781;28;20036;-79
2022/04/14 00:49:24;;;;;;;0.10;0.10;;;;;;;8.48;51.90;99466.81;5050865;28;20017;-79
2022/04/14 00:51:50;;;;;;;0.00;0.00;;;;;;;8.52;52.39;99458.31;5057017;28;20116;-80
2022/04/14 00:58:18;;;;;;;0.00;0.00;;;;;;;8.57;51.97;99459.16;5064917;28;20178;-83
2022/04/14 01:04:31;;;;;;;0.00;0.00;;;;;;;8.56;51.28;99452.22;5099172;22;20049;-87
2022/04/14 01:07:38;;;;;;;0.00;0.00;;;;;;;8.43;50.87;99453.38;4994779;28;20074;-87
2022/04/14 01:10:04;;;;;;;0.00;0.00;;;;;;;8.40;51.12;99445.09;4964840;28;20061;-88
2022/04/14 01:23:31;;;;;;;0.00;0.00;;;;;;;8.08;51.21;99446.66;4999914;28;20434;-85
2022/04/14 01:26:56;;;;;;;0.00;0.00;;;;;;;7.99;51.73;99446.25;4989911;28;20033;-86
2022/04/14 01:29:58;;;;;;;0.00;0.00;;;;;;;7.93;51.47;99449.91;4970935;28;20030;-86
2022/04/14 02:32:07;;;;;;;0.00;0.00;;;;;;;6.62;54.43;99444.88;5574073;23;20072;-82
2022/04/14 02:38:45;;;;;;;0.00;0.00;;;;;;;6.83;54.55;99483.22;5050657;23;20041;-81
2022/04/14 02:45:18;;;;;;;;;;;;;;;6.71;54.62;99480.66;4834471;29;20065;-78
2022/04/14 02:47:44;;;;;;;0.00;0.00;;;;;;;6.68;54.96;99482.97;4863412;29;19943;-80
2022/04/14 02:50:09;;;;;;;0.00;0.00;;;;;;;6.66;54.97;99474.44;4878998;29;20028;-80
2022/04/14 02:52:35;;;;;;;0.00;0.00;;;;;;;6.65;55.24;99467.50;4879014;29;20039;-80
2022/04/14 02:55:00;;;;;;;0.00;0.00;;;;;;;6.63;55.60;99475.72;4880927;29;20032;-80
2022/04/14 02:57:25;;;;;;;0.00;0.00;;;;;;;6.61;55.55;99477.00;4878398;29;20033;-76
2022/04/14 02:59:51;;;;;;;0.00;0.00;;;;;;;6.59;55.39;99473.75;4880062;29;20047;-77
2022/04/14 03:02:16;;;;;;;0.00;0.00;;;;;;;6.58;55.13;99470.31;4878904;29;20128;-80
2022/04/14 03:04:42;;;;;;;0.00;0.00;;;;;;;6.56;55.19;99480.38;4882341;29;20029;-78
2022/04/14 03:07:07;;;;;;;0.00;0.00;;;;;;;6.52;55.33;99490.66;4882611;29;20492;-79
2022/04/14 03:09:33;;;;;;;0.00;0.00;;;;;;;6.50;55.27;99497.25;4898941;29;20057;-80
2022/04/14 03:11:58;;;;;;;0.00;0.00;;;;;;;6.47;55.18;99501.22;4882069;29;20036;-79
2022/04/14 03:14:24;;;;;;;0.00;0.00;;;;;;;6.47;55.17;99498.56;4881889;29;20033;-78
2022/04/14 03:16:49;;;;;;;0.00;0.00;;;;;;;6.45;54.90;99502.50;4898922;29;20127;-79
2022/04/14 03:41:21;;;;;;;0.00;0.00;;;;;;;6.07;57.11;99521.41;4854994;29;20129;-78
2022/04/14 03:43:46;;;;;;;0.00;0.00;;;;;;;6.08;56.84;99517.72;4876002;29;20037;-78
2022/04/14 03:46:14;;;;;;;0.00;0.00;;;;;;;6.10;57.62;99522.78;4841731;29;20030;-77
2022/04/14 03:48:58;;;;;;;0.00;0.00;;;;;;;6.13;58.26;99524.97;4861037;29;20494;-76
2022/04/14 03:51:24;;;;;;;0.00;0.00;;;;;;;6.22;57.88;99520.09;4860926;29;20170;-77
2022/04/14 03:53:49;;;;;;;0.00;0.00;;;;;;;6.35;57.91;99519.03;4859951;29;20124;-77
2022/04/14 03:56:15;;;;;;;1.88;0.52;;;;;;;6.49;58.10;99508.94;4864869;29;20113;-77
2022/04/14 03:58:48;;;;;;;0.00;0.00;;;;;;;6.73;57.71;99514.94;4878668;29;20089;-79
2022/04/14 04:01:37;;;;;;;0.00;0.00;;;;;;;6.98;57.06;99517.25;4871286;29;20032;-79
2022/04/14 04:04:23;;;;;;;0.00;0.00;;;;;;;7.39;55.96;99527.72;4883286;29;20040;-77
2022/04/14 04:06:48;;;;;;;0.00;0.00;;;;;;;7.69;55.06;99523.94;4861501;29;20029;-79
2022/04/14 04:09:14;;;;;;;0.00;0.00;;;;;;;8.10;54.51;99529.75;4853594;29;20494;-77
2022/04/14 04:11:39;;;;;;;0.00;0.00;;;;;;;8.52;53.33;99531.09;4850611;29;20048;-77
2022/04/14 04:17:27;;;;;;;0.00;0.00;;;;;;;9.59;50.10;99526.94;4862311;29;20491;-78
2022/04/14 04:19:52;;;;;;;0.00;0.00;;;;;;;10.10;48.76;99537.88;4844618;29;20034;-75
2022/04/14 04:22:18;;;;;;;0.00;0.00;;;;;;;10.54;47.27;99539.41;4846445;29;20025;-75
2022/04/14 04:24:43;;;;;;;0.00;0.00;;;;;;;11.00;46.46;99549.41;4843625;29;20109;-76
2022/04/14 04:27:09;;;;;;;0.00;0.00;;;;;;;11.36;45.28;99546.75;4852119;29;20037;-76
2022/04/14 04:29:34;;;;;;;0.00;0.00;;;;;;;11.78;44.46;99544.00;4859732;29;20030;-77
2022/04/14 04:32:00;;;;;;;0.00;0.00;;;;;;;12.23;43.47;99549.53;4860673;29;20069;-77
2022/04/14 04:34:25;;;;;;;0.00;0.00;;;;;;;12.62;41.82;99540.75;4860004;29;20029;-75
2022/04/14 04:36:50;;;;;;;0.00;0.00;;;;;;;13.09;41.50;99554.69;4860092;29;20478;-75
2022/04/14 04:39:16;;;;;;;0.00;0.00;;;;;;;13.56;40.73;99553.25;4859862;29;20098;-75
2022/04/14 04:41:42;;;;;;;0.50;0.50;;;;;;;13.99;39.49;99547.19;4859644;29;20046;-75
2022/04/14 04:44:09;;;;;;;0.00;0.00;;;;;;;14.36;38.38;99545.66;4843395;29;20039;-76
2022/04/14 04:46:35;;;;;;;0.00;0.00;;;;;;;14.75;37.44;99551.13;4859896;29;20041;-76
2022/04/14 04:49:00;;;;;;;0.00;0.00;;;;;;;15.08;36.92;99548.47;4859909;29;20028;-75
2022/04/14 04:51:25;;;;;;;0.00;0.00;;;;;;;15.49;36.31;99561.25;4859977;29;20045;-75
2022/04/14 04:53:52;;;;;;;0.45;0.30;;;;;;;15.86;35.40;99567.66;4858682;29;20032;-76
2022/04/14 04:56:20;;;;;;;0.00;0.00;;;;;;;16.18;34.61;99563.25;4859884;29;20029;-75
2022/04/14 04:58:46;;;;;;;0.08;0.08;;;;;;;16.49;34.25;99568.03;4859714;29;20030;-76
2022/04/14 05:01:12;;;;;;;0.17;0.17;;;;;;;16.79;33.63;99563.84;4860087;29;20049;-78
2022/04/14 05:03:38;;;;;;;0.00;0.00;;;;;;;17.15;33.24;99566.84;4859413;29;20518;-76
2022/04/14 05:06:03;;;;;;;0.00;0.00;;;;;;;17.38;32.87;99578.47;4860133;29;20036;-75
2022/04/14 05:08:28;;;;;;;0.00;0.00;;;;;;;17.63;32.11;99573.53;4859783;29;20029;-75
2022/04/14 05:10:54;;;;;;;0.00;0.00;;;;;;;17.76;31.93;99567.25;4858304;29;20472;-75
2022/04/14 05:13:19;;;;;;;0.00;0.00;;;;;;;17.98;31.50;99569.13;4859532;29;20517;-75
2022/04/14 05:15:45;;;;;;;0.00;0.00;;;;;;;18.13;31.37;99572.50;4859401;29;20482;-75
2022/04/14 05:18:10;;;;;;;0.20;0.20;;;;;;;18.24;31.34;99573.81;4859131;29;20044;-75
2022/04/14 05:20:36;;;;;;;0.00;0.00;;;;;;;18.28;31.11;99576.69;4859113;29;20081;-75
2022/04/14 05:23:03;;;;;;;0.08;0.08;;;;;;;18.45;31.17;99579.44;4859489;29;20037;-75
2022/04/14 05:25:29;;;;;;;0.20;0.20;;;;;;;18.61;31.11;99587.91;4858822;29;20029;-75
2022/04/14 05:27:55;;;;;;;0.15;0.15;;;;;;;18.81;30.80;99581.09;4857998;29;20469;-75
2022/04/14 05:30:20;;;;;;;0.00;0.00;;;;;;;19.07;30.58;99587.66;4859303;29;20040;-75
2022/04/14 05:32:46;;;;;;;0.00;0.00;;;;;;;19.22;30.35;99587.16;4859120;29;20037;-77
2022/04/14 05:35:11;;;;;;;0.00;0.00;;;;;;;19.44;30.15;99597.00;4858993;29;20060;-77
2022/04/14 05:37:36;;;;;;;0.13;0.13;;;;;;;19.57;30.32;99595.25;4858708;29;20029;-74
2022/04/14 05:40:06;;;;;;;0.00;0.00;;;;;;;19.74;30.02;99599.81;4858911;29;20033;-74
2022/04/14 05:42:32;;;;;;;0.10;0.10;;;;;;;19.89;29.78;99586.88;4859117;29;20049;-75
2022/04/14 05:45:01;;;;;;;0.10;0.10;;;;;;;20.01;29.85;99603.28;4859211;29;20034;-76
2022/04/14 05:47:27;;;;;;;0.00;0.00;;;;;;;19.83;29.99;99594.38;4859237;29;20041;-76
2022/04/14 05:49:53;;;;;;;0.80;0.25;;;;;;;19.61;29.74;99603.53;4859133;29;20029;-76
2022/04/14 05:52:20;;;;;;;0.00;0.00;;;;;;;19.24;30.59;99590.34;4858853;29;20039;-76
2022/04/14 05:54:46;;;;;;;0.35;0.35;;;;;;;18.93;30.92;99604.06;4858645;29;20030;-76
2022/04/14 05:57:15;;;;;;;0.10;0.10;;;;;;;18.49;31.26;99602.09;4858624;29;20650;-76
2022/04/14 05:59:41;;;;;;;0.00;0.00;;;;;;;18.01;31.84;99602.88;4858256;29;20037;-76
2022/04/14 06:02:08;;;;;;;0.57;0.52;;;;;;;17.80;32.73;99602.56;4858477;29;20037;-76
2022/04/14 06:04:34;;;;;;;0.10;0.10;;;;;;;17.46;33.23;99590.47;4858059;29;20530;-76
2022/04/14 06:06:59;;;;;;;0.00;0.00;;;;;;;17.15;33.09;99597.41;4858421;29;20045;-76
2022/04/14 06:09:24;;;;;;;0.00;0.00;;;;;;;16.90;33.65;99602.25;4858211;29;20478;-76
2022/04/14 06:11:50;;;;;;;0.10;0.10;;;;;;;16.65;34.05;99592.81;4858179;29;20040;-76
2022/04/14 06:14:15;;;;;;;0.82;0.82;;;;;;;16.30;35.12;99590.53;4858173;29;20467;-76
2022/04/14 06:16:41;;;;;;;0.52;0.52;;;;;;;16.02;36.11;99591.66;4857485;29;20047;-76
2022/04/14 06:19:06;;;;;;;2.03;0.52;;;;;;;15.83;36.15;99595.19;4857842;29;20387;-76
2022/04/14 06:21:31;;;;;;;0.10;0.10;;;;;;;15.71;36.53;99601.06;4857853;29;20026;-76
2022/04/14 06:23:57;;;;;;;0.00;0.00;;;;;;;15.62;36.94;99600.13;4856866;29;20026;-76
2022/04/14 06:26:23;;;;;;;0.00;0.00;;;;;;;15.51;35.43;99591.41;4858149;29;20029;-76
2022/04/14 06:28:48;;;;;;;0.00;0.00;;;;;;;15.39;35.61;99596.47;4857599;29;20040;-76
2022/04/14 06:31:14;;;;;;;0.00;0.00;;;;;;;15.23;35.52;99582.44;4858077;29;20537;-76
2022/04/14 06:33:40;;;;;;;0.10;0.10;;;;;;;15.10;35.75;99592.88;4857837;29;20040;-76
2022/04/14 06:36:05;;;;;;;0.10;0.10;;;;;;;15.10;36.32;99590.19;4841281;29;20040;-76
2022/04/14 06:38:31;;;;;;;1.17;1.17;;;;;;;14.94;36.69;99586.09;4859292;29;20032;-78
2022/04/14 06:40:56;;;;;;;0.30;0.30;;;;;;;14.93;35.96;99592.56;4860110;29;20046;-75
2022/04/14 06:43:24;;;;;;;0.32;0.32;;;;;;;14.96;36.63;99581.22;4861691;29;20060;-77
2022/04/14 06:45:50;;;;;;;0.00;0.00;;;;;;;15.11;36.16;99590.97;4860137;29;20034;-76
2022/04/14 06:48:16;;;;;;;0.00;0.00;;;;;;;15.11;36.23;99581.00;4860255;29;20052;-77
2022/04/14 06:50:41;;;;;;;0.38;0.38;;;;;;;15.18;35.61;99594.09;4859985;29;20029;-77
2022/04/14 06:53:07;;;;;;;0.00;0.00;;;;;;;15.16;35.17;99605.16;4861502;29;20057;-77
2022/04/14 06:55:35;;;;;;;0.10;0.10;;;;;;;15.16;36.15;99588.19;4861201;29;20033;-76
2022/04/14 06:58:01;;;;;;;0.10;0.10;;;;;;;15.14;34.65;99601.97;4861489;29;20093;-77
2022/04/14 07:00:27;;;;;;;0.52;0.52;;;;;;;15.08;34.87;99599.66;4861398;29;20630;-77
2022/04/14 07:02:54;;;;;;;0.10;0.10;;;;;;;15.05;35.43;99598.34;4844443;29;20127;-77
2022/04/14 07:05:20;;;;;;;0.10;0.10;;;;;;;15.05;35.73;99599.13;4860364;29;20541;-77
2022/04/14 07:07:46;;;;;;;0.05;0.05;;;;;;;15.08;36.26;99603.13;4861631;29;20025;-77
2022/04/14 07:10:12;;;;;;;0.10;0.10;;;;;;;15.12;36.65;99606.81;4861868;29;20037;-76
2022/04/14 07:12:38;;;;;;;0.32;0.32;;;;;;;15.14;36.71;99606.56;4861654;29;20112;-77
2022/04/14 07:15:05;;;;;;;0.00;0.00;;;;;;;15.18;36.86;99607.56;4861639;29;20038;-77
2022/04/14 07:17:30;;;;;;;0.10;0.10;;;;;;;15.30;37.74;99607.13;4861256;29;20105;-77
2022/04/14 07:19:57;;;;;;;0.20;0.17;;;;;;;15.49;36.06;99607.88;4861793;29;20037;-77
2022/04/14 07:22:23;;;;;;;0.00;0.00;;;;;;;15.46;35.64;99619.25;4861621;29;20393;-77
2022/04/14 07:24:49;;;;;;;0.00;0.00;;;;;;;15.52;35.95;99614.56;4861425;29;20037;-77
2022/04/14 07:27:21;;;;;;;0.00;0.00;;;;;;;15.64;36.01;99606.81;4861254;29;20406;-77
2022/04/14 07:29:47;;;;;;;0.10;0.10;;;;;;;15.84;35.93;99615.69;4861552;29;20037;-77
2022/04/14 07:32:14;;;;;;;0.00;0.00;;;;;;;15.88;36.66;99613.19;4861575;29;20529;-77
2022/04/14 07:34:39;;;;;;;0.10;0.10;;;;;;;16.00;36.34;99614.31;4860921;29;20041;-77
2022/04/14 07:37:05;;;;;;;0.00;0.00;;;;;;;16.14;35.57;99613.53;4860104;29;20379;-77
2022/04/14 07:39:31;;;;;;;0.10;0.10;;;;;;;16.17;35.71;99621.00;4861391;29;20117;-77
2022/04/14 07:41:56;;;;;;;0.05;0.05;;;;;;;16.23;35.38;99614.41;4861096;29;20049;-77
2022/04/14 07:44:22;;;;;;;0.25;0.25;;;;;;;16.30;36.93;99603.25;4861065;29;20025;-77
2022/04/14 07:46:47;;;;;;;0.10;0.10;;;;;;;16.49;36.10;99622.03;4860781;29;20033;-77
2022/04/14 07:49:12;;;;;;;0.20;0.20;;;;;;;16.53;35.94;99604.13;4860554;29;20493;-77
2022/04/14 07:51:40;;;;;;;0.00;0.00;;;;;;;16.71;36.20;99618.59;4860635;29;20052;-78
2022/04/14 07:54:05;;;;;;;0.20;0.20;;;;;;;16.74;35.43;99611.78;4859885;29;20037;-76
2022/04/14 07:56:31;;;;;;;0.10;0.10;;;;;;;16.69;34.59;99610.00;4860903;29;20512;-78
2022/04/14 07:58:56;;;;;;;0.08;0.08;;;;;;;16.62;35.15;99617.72;4860809;29;20109;-77
2022/04/14 08:01:22;;;;;;;0.10;0.10;;;;;;;16.51;34.84;99619.03;4861222;29;20073;-77
2022/04/14 08:03:47;;;;;;;0.10;0.10;;;;;;;16.39;34.75;99606.81;4861008;29;20105;-78
2022/04/14 08:06:14;;;;;;;0.10;0.10;;;;;;;16.28;34.46;99617.03;4860584;29;20512;-77
2022/04/14 08:08:40;;;;;;;0.70;0.70;;;;;;;16.29;35.08;99624.00;4860705;29;20116;-78
2022/04/14 08:11:08;;;;;;;0.20;0.20;;;;;;;16.20;34.45;99625.00;4860797;29;20375;-78
2022/04/14 08:13:37;;;;;;;0.15;0.15;;;;;;;16.11;34.36;99624.91;4860808;29;20033;-77
2022/04/14 08:16:08;;;;;;;0.68;0.68;;;;;;;16.03;34.67;99623.72;4860687;29;20027;-77
2022/04/14 08:18:35;;;;;;;0.17;0.17;;;;;;;15.99;33.55;99614.59;4860604;29;20029;-76
2022/04/14 08:21:02;;;;;;;0.20;0.20;;;;;;;15.98;34.37;99621.13;4860467;29;20446;-75
2022/04/14 08:23:27;;;;;;;0.10;0.10;;;;;;;16.08;34.86;99625.53;4859412;29;20033;-78
2022/04/14 08:25:53;;;;;;;0.00;0.00;;;;;;;16.21;35.05;99623.91;4860358;29;20037;-78
2022/04/14 08:28:18;;;;;;;0.00;0.00;;;;;;;16.39;33.71;99614.13;4860554;29;20032;-78
2022/04/14 08:30:44;;;;;;;0.70;0.55;;;;;;;16.52;32.04;99618.72;4860005;29;20032;-78
2022/04/14 08:33:13;;;;;;;0.00;0.00;;;;;;;16.56;29.62;99616.22;4860241;29;20107;-77
2022/04/14 08:35:38;;;;;;;0.10;0.10;;;;;;;16.62;28.62;99610.41;4860102;29;20030;-78
2022/04/14 08:38:09;;;;;;;0.10;0.10;;;;;;;16.71;29.26;99612.38;4860389;29;20037;-78
2022/04/14 08:40:36;;;;;;;0.00;0.00;;;;;;;16.79;29.98;99600.88;4860203;29;20041;-78
2022/04/14 08:43:09;;;;;;;0.33;0.33;;;;;;;16.89;29.66;99608.75;4860396;29;20117;-77
2022/04/14 08:45:40;;;;;;;0.13;0.13;;;;;;;17.05;30.84;99614.66;4860211;29;20056;-77
2022/04/14 08:48:05;;;;;;;0.00;0.00;;;;;;;17.23;29.37;99609.38;4859900;29;20177;-77
2022/04/14 08:50:32;;;;;;;0.80;0.80;;;;;;;17.11;28.21;99610.72;4859860;29;20108;-78
2022/04/14 08:52:58;;;;;;;0.40;0.40;;;;;;;17.00;27.99;99614.75;4859881;29;20030;-77
2022/04/14 08:55:24;;;;;;;0.20;0.20;;;;;;;16.93;28.01;99620.59;4860336;29;20040;-77
2022/04/14 08:57:49;;;;;;;0.17;0.17;;;;;;;16.87;28.47;99599.34;4859475;29;20108;-77
2022/04/14 09:00:16;;;;;;;0.20;0.20;;;;;;;16.84;28.90;99598.06;4859453;29;20036;-77
2022/04/14 09:02:45;;;;;;;0.25;0.25;;;;;;;16.92;29.20;99600.06;4859457;29;20037;-77
2022/04/14 09:05:12;;;;;;;0.10;0.10;;;;;;;17.05;30.22;99600.31;4859906;29;20061;-77
2022/04/14 09:07:38;;;;;;;0.00;0.00;;;;;;;17.17;29.42;99595.19;4859493;29;20410;-77
2022/04/14 09:10:07;;;;;;;0.22;0.22;;;;;;;17.33;27.95;99594.81;4858292;29;20122;-77
2022/04/14 09:12:36;;;;;;;0.20;0.20;;;;;;;17.42;28.01;99593.78;4859767;29;20071;-77
2022/04/14 09:15:02;;;;;;;0.00;0.00;;;;;;;17.46;27.27;99593.94;4858295;29;20416;-77
2022/04/14 09:17:29;;;;;;;0.25;0.25;;;;;;;17.44;26.54;99586.16;4859638;29;20037;-77
2022/04/14 09:19:54;;;;;;;0.10;0.10;;;;;;;17.52;27.60;99589.22;4859325;29;20516;-77
2022/04/14 09:22:20;;;;;;;0.03;0.03;;;;;;;17.60;27.00;99597.38;4858362;29;20072;-77
2022/04/14 09:24:49;;;;;;;0.13;0.13;;;;;;;17.64;27.62;99591.34;4859430;29;20105;-77
2022/04/14 09:27:32;;;;;;;0.00;0.00;;;;;;;17.71;27.76;99597.94;4859570;29;20033;-77
2022/04/14 09:30:04;;;;;;;0.30;0.30;;;;;;;17.63;26.92;99593.25;4859180;29;20085;-78
2022/04/14 09:32:38;;;;;;;0.40;0.40;;;;;;;17.60;27.25;99583.03;4859422;29;20096;-77
2022/04/14 09:35:06;;;;;;;0.17;0.17;;;;;;;17.51;26.77;99579.50;4858894;29;20032;-77
2022/04/14 09:37:33;;;;;;;;;;;;;;;17.49;26.97;99584.41;4859695;29;20036;-77
2022/04/14 09:40:02;;;;;;;0.00;0.00;;;;;;;17.40;26.88;99570.84;4858826;29;20003;-77
2022/04/14 09:42:30;;;;;;;0.20;0.20;;;;;;;17.38;26.75;99573.88;4859430;29;20073;-77
2022/04/14 09:45:17;;;;;;;0.10;0.10;;;;;;;17.42;26.88;99574.06;4859118;29;20081;-77
2022/04/14 09:47:42;;;;;;;0.20;0.20;;;;;;;17.46;25.19;99576.94;4858976;29;20037;-77
2022/04/14 09:50:24;;;;;;;0.10;0.10;;;;;;;17.51;26.13;99566.78;4859207;29;20025;-77
2022/04/14 09:53:09;;;;;;;0.00;0.00;;;;;;;17.53;27.19;99569.19;4858924;29;20242;-77
2022/04/14 09:55:38;;;;;;;0.00;0.00;;;;;;;17.54;25.53;99570.75;4859154;29;20116;-77
2022/04/14 09:58:15;;;;;;;0.00;0.00;;;;;;;17.51;25.42;99566.00;4857428;29;20026;-77
2022/04/14 10:01:07;;;;;;;0.10;0.10;;;;;;;17.49;27.20;99560.91;4858979;29;20401;-78
2022/04/14 10:03:34;;;;;;;0.00;0.00;;;;;;;17.45;27.03;99559.91;4839076;29;20042;-77
2022/04/14 10:06:05;;;;;;;0.22;0.22;;;;;;;17.41;26.41;99554.31;4857374;29;20030;-77
2022/04/14 10:08:47;;;;;;;0.00;0.00;;;;;;;17.46;27.05;99563.44;4858641;29;20121;-77
2022/04/14 10:11:13;;;;;;;0.00;0.00;;;;;;;17.43;26.19;99548.59;4858381;29;20417;-78
2022/04/14 10:13:39;;;;;;;0.20;0.20;;;;;;;17.39;25.79;99561.97;4857418;29;20033;-78
2022/04/14 10:16:07;;;;;;;0.10;0.10;;;;;;;17.40;26.27;99558.13;4858484;29;20042;-78
2022/04/14 10:18:32;;;;;;;0.20;0.20;;;;;;;17.38;27.01;99549.53;4858979;29;20044;-77
2022/04/14 10:20:58;;;;;;;0.05;0.05;;;;;;;17.48;26.68;99553.91;4858735;29;20037;-77
2022/04/14 10:23:27;;;;;;;0.00;0.00;;;;;;;17.53;26.49;99540.22;4858414;29;20038;-77
2022/04/14 10:25:53;;;;;;;0.00;0.00;;;;;;;17.53;25.11;99548.34;4858376;29;20033;-77
2022/04/14 10:28:20;;;;;;;0.40;0.40;;;;;;;17.52;25.26;99560.25;4857420;29;20417;-78
2022/04/14 10:30:49;;;;;;;0.17;0.17;;;;;;;17.46;25.64;99545.28;4858304;29;20533;-78
2022/04/14 10:33:17;;;;;;;0.88;0.88;;;;;;;17.46;25.41;99550.69;4857415;29;20041;-78
2022/04/14 10:35:42;;;;;;;0.45;0.45;;;;;;;17.48;24.96;99544.97;4858470;29;20112;-77
2022/04/14 10:38:20;;;;;;;0.00;0.00;;;;;;;17.51;25.22;99539.75;4858472;29;20161;-78
2022/04/14 10:40:49;;;;;;;0.10;0.10;;;;;;;17.57;24.63;99543.13;4858330;29;20046;-79
2022/04/14 10:43:20;;;;;;;0.28;0.28;;;;;;;17.65;24.24;99538.84;4857436;29;20029;-79
2022/04/14 10:45:56;;;;;;;0.03;0.03;;;;;;;17.74;23.55;99537.00;4857210;29;20410;-77
2022/04/14 10:48:36;;;;;;;0.00;0.00;;;;;;;17.86;23.89;99544.53;4858873;29;20034;-77
2022/04/14 10:51:24;;;;;;;0.10;0.10;;;;;;;17.95;24.31;99529.13;4858542;29;20033;-78
2022/04/14 10:54:00;;;;;;;0.00;0.00;;;;;;;17.98;23.96;99535.81;4858362;29;20198;-78
2022/04/14 10:56:41;;;;;;;0.00;0.00;;;;;;;18.04;24.06;99531.88;4857057;29;20033;-77
2022/04/14 10:59:12;;;;;;;0.00;0.00;;;;;;;18.04;23.83;99532.69;4858204;29;20041;-77
2022/04/14 11:01:47;;;;;;;0.08;0.08;;;;;;;18.05;24.42;99537.00;4858503;29;20030;-78
2022/04/14 11:04:51;;;;;;;0.20;0.20;;;;;;;18.01;23.67;99527.88;4857238;29;20037;-78
2022/04/14 11:07:21;;;;;;;0.30;0.30;;;;;;;18.04;24.27;99513.75;4858392;29;20022;-78
2022/04/14 11:09:50;;;;;;;0.08;0.08;;;;;;;18.04;24.26;99527.25;4858113;29;20033;-78
2022/04/14 11:12:50;;;;;;;0.15;0.15;;;;;;;18.03;23.50;99522.19;4858336;29;20035;-78
2022/04/14 11:15:29;;;;;;;0.60;0.60;;;;;;;18.05;24.29;99526.16;4857019;29;20508;-77
2022/04/14 11:18:03;;;;;;;0.20;0.20;;;;;;;18.05;23.68;99511.81;4845325;29;20107;-78
2022/04/14 11:20:35;;;;;;;0.30;0.30;;;;;;;18.11;23.57;99507.84;4839933;29;20045;-78
2022/04/14 11:23:03;;;;;;;0.15;0.15;;;;;;;18.16;23.98;99512.31;4839648;29;20030;-78
2022/04/14 11:25:41;;;;;;;;;;;;;;;18.14;23.19;99506.41;4841873;29;20070;-78
2022/04/14 11:28:26;;;;;;;0.10;0.10;;;;;;;18.06;22.87;99502.59;4843211;29;19921;-78
2022/04/14 11:31:23;;;;;;;0.35;0.35;;;;;;;18.18;23.46;99491.16;4842880;29;20030;-77
2022/04/14 11:33:50;;;;;;;0.00;0.00;;;;;;;18.18;24.09;99491.16;4842855;29;20507;-77
2022/04/14 11:36:25;;;;;;;0.10;0.10;;;;;;;18.28;24.20;99495.47;4842889;29;20090;-78
2022/04/14 11:38:55;;;;;;;0.10;0.10;;;;;;;18.28;24.47;99482.72;4856740;29;20395;-78
2022/04/14 11:41:36;;;;;;;0.00;0.00;;;;;;;18.44;25.66;99490.38;4842761;29;20054;-78
2022/04/14 11:44:06;;;;;;;0.15;0.15;;;;;;;18.61;25.43;99487.69;4842695;29;20132;-78
2022/04/14 11:46:32;;;;;;;0.00;0.00;;;;;;;18.69;24.05;99489.59;4857053;29;20077;-78
2022/04/14 11:48:59;;;;;;;0.10;0.10;;;;;;;18.78;24.78;99484.16;4856613;29;20034;-77
2022/04/14 11:51:27;;;;;;;0.00;0.00;;;;;;;18.87;24.41;99484.97;4842580;29;20582;-77
2022/04/14 11:53:55;;;;;;;0.10;0.10;;;;;;;18.96;24.43;99479.56;4842462;29;20030;-78
2022/04/14 11:56:21;;;;;;;0.00;0.00;;;;;;;18.97;23.89;99475.72;4842557;29;20120;-77
2022/04/14 11:58:47;;;;;;;0.30;0.30;;;;;;;18.98;23.41;99468.38;4842598;29;20117;-77
2022/04/14 12:01:13;;;;;;;0.98;0.63;;;;;;;18.96;23.73;99468.72;4842314;29;20460;-77
2022/04/14 12:03:40;;;;;;;0.20;0.20;;;;;;;18.90;23.82;99458.34;4842318;29;20457;-77
2022/04/14 12:06:08;;;;;;;0.10;0.10;;;;;;;18.96;23.41;99473.34;4842330;29;20030;-77
2022/04/14 12:08:34;;;;;;;0.05;0.05;;;;;;;18.93;23.72;99463.13;4842348;29;20026;-77
2022/04/14 12:11:03;;;;;;;0.00;0.00;;;;;;;18.94;23.38;99462.81;4842109;29;20037;-77
2022/04/14 12:13:33;;;;;;;1.08;0.65;;;;;;;18.99;24.64;99459.13;4842360;29;20036;-77
2022/04/14 12:16:00;;;;;;;0.00;0.00;;;;;;;19.08;23.82;99453.69;4841843;29;20415;-77
2022/04/14 12:18:26;;;;;;;0.15;0.15;;;;;;;19.08;23.28;99461.81;4841890;29;20708;-77
2022/04/14 12:20:51;;;;;;;0.10;0.10;;;;;;;19.09;23.87;99455.28;4856238;29;20041;-77
2022/04/14 12:23:17;;;;;;;0.22;0.22;;;;;;;19.15;23.19;99454.00;4840932;29;20517;-77
2022/04/14 12:25:42;;;;;;;0.00;0.00;;;;;;;19.18;23.41;99447.94;4841813;29;20045;-77
2022/04/14 12:28:08;;;;;;;0.00;0.00;;;;;;;19.25;23.16;99450.94;4841685;29;20079;-77
2022/04/14 12:30:34;;;;;;;0.00;0.00;;;;;;;19.27;23.36;99448.69;4842072;29;20107;-77
2022/04/14 12:33:04;;;;;;;0.00;0.00;;;;;;;19.31;23.85;99446.13;4842013;29;20046;-77
2022/04/14 12:35:32;;;;;;;0.25;0.25;;;;;;;19.38;24.41;99440.22;4841972;29;20026;-77
2022/04/14 12:38:13;;;;;;;0.10;0.10;;;;;;;19.37;23.19;99442.13;4841717;29;20038;-77
2022/04/14 12:40:59;;;;;;;0.95;0.95;;;;;;;19.35;23.37;99442.44;4841947;29;20029;-77
2022/04/14 12:43:28;;;;;;;0.10;0.10;;;;;;;19.40;23.98;99438.78;4841752;29;20120;-77
2022/04/14 12:45:57;;;;;;;0.00;0.00;;;;;;;19.42;23.81;99431.13;4840282;29;20108;-77
2022/04/14 12:48:35;;;;;;;0.10;0.10;;;;;;;19.42;23.30;99422.16;4841776;29;20087;-77
2022/04/14 12:51:01;;;;;;;0.30;0.30;;;;;;;19.36;23.65;99427.00;4840182;29;20038;-77
2022/04/14 12:53:27;;;;;;;0.05;0.05;;;;;;;19.35;23.38;99430.81;4841696;29;20095;-76
2022/04/14 12:56:12;;;;;;;0.08;0.08;;;;;;;19.34;23.40;99427.28;4840113;29;20418;-79
2022/04/14 12:58:38;;;;;;;0.00;0.00;;;;;;;19.32;23.38;99424.13;4841545;29;20026;-79
2022/04/14 13:01:08;;;;;;;0.45;0.45;;;;;;;19.29;23.52;99427.47;4841548;29;20030;-79
2022/04/14 13:03:46;;;;;;;0.32;0.32;;;;;;;19.25;23.93;99418.41;4841408;29;20090;-76
2022/04/14 13:06:21;;;;;;;0.00;0.00;;;;;;;19.28;24.20;99412.31;4841328;29;20129;-75
2022/04/14 13:08:47;;;;;;;0.00;0.00;;;;;;;19.36;23.77;99410.72;4841335;29;20034;-76
2022/04/14 13:11:48;;;;;;;0.10;0.10;;;;;;;19.43;23.57;99421.03;4839887;29;20101;-78
2022/04/14 13:14:20;;;;;;;0.60;0.25;;;;;;;19.41;23.66;99417.84;4841089;29;20042;-78
2022/04/14 13:16:47;;;;;;;0.10;0.10;;;;;;;19.39;23.76;99409.28;4841106;29;20037;-78
2022/04/14 13:19:13;;;;;;;0.08;0.08;;;;;;;19.33;23.68;99401.31;4840968;29;20060;-78
2022/04/14 13:21:38;;;;;;;0.00;0.00;;;;;;;19.40;24.22;99397.31;4841153;29;20022;-77
2022/04/14 13:24:04;;;;;;;0.00;0.00;;;;;;;19.40;24.24;99400.03;4839589;29;20103;-78
2022/04/14 13:26:30;;;;;;;0.00;0.00;;;;;;;19.46;24.00;99393.28;4839680;29;20044;-78
2022/04/14 13:28:55;;;;;;;0.10;0.10;;;;;;;19.48;23.44;99405.41;4839341;29;20034;-77
2022/04/14 13:31:21;;;;;;;0.10;0.10;;;;;;;19.48;23.84;99396.44;4840914;29;20066;-77
2022/04/14 13:33:46;;;;;;;0.15;0.15;;;;;;;19.56;23.57;99392.91;4839322;29;20491;-77
2022/04/14 13:36:12;;;;;;;0.10;0.10;;;;;;;19.54;23.37;99399.78;4840386;29;20022;-78
2022/04/14 13:38:38;;;;;;;0.00;0.00;;;;;;;19.47;23.83;99390.25;4840908;29;20503;-78
2022/04/14 13:41:03;;;;;;;0.22;0.22;;;;;;;19.50;23.97;99386.84;4840744;29;20064;-77
2022/04/14 13:43:29;;;;;;;0.00;0.00;;;;;;;19.56;23.97;99392.13;4840641;29;20033;-77
2022/04/14 13:45:55;;;;;;;0.10;0.10;;;;;;;19.52;23.54;99389.25;4840264;29;20410;-77
2022/04/14 13:48:20;;;;;;;0.10;0.10;;;;;;;19.54;23.57;99389.72;4840294;29;20040;-77
2022/04/14 13:50:45;;;;;;;0.55;0.55;;;;;;;19.47;24.04;99401.09;4854757;29;20034;-77
2022/04/14 13:53:13;;;;;;;0.20;0.20;;;;;;;19.56;24.17;99402.97;4840612;29;20038;-78
2022/04/14 13:55:39;;;;;;;0.08;0.08;;;;;;;19.65;24.08;99401.78;4840007;29;20427;-78
2022/04/14 13:58:04;;;;;;;0.38;0.32;;;;;;;19.67;24.10;99394.09;4823693;29;20034;-78